Time;durP1;ratioP1;P1;durP2;ratioP2;P2;SDS_P1;SDS_P2;PMS_P1;PMS_P2;Temp;Humidity;BMP_temperature;BMP_pressure;BME280_temperature;BME280_humidity;BME280_pressure;Samples;Min_cycle;Max_cycle;Signal;HPM_P1;HPM_P2
2022/11/02 04:02:09;;;;;;;0.73;0.73;;;12.50;81.00;;;;;;5507898;22;20512;-77
2022/11/02 04:04:46;;;;;;;0.60;0.60;;;12.60;81.00;;;;;;5073310;28;20923;-76
2022/11/02 04:07:14;;;;;;;0.83;0.80;;;12.60;81.00;;;;;;5073333;28;20433;-76
2022/11/02 04:09:41;;;;;;;0.80;0.67;;;12.60;80.60;;;;;;5073567;28;20441;-77
2022/11/02 04:15:02;;;;;;;0.67;0.63;;;12.60;80.60;;;;;;5074535;28;20874;-76
2022/11/02 04:20:17;;;;;;;0.80;0.80;;;12.40;80.80;;;;;;5050538;28;20561;-76
2022/11/02 04:25:28;;;;;;;0.70;0.60;;;12.50;80.80;;;;;;5073467;28;20401;-76
2022/11/02 04:27:54;;;;;;;0.70;0.70;;;12.50;81.00;;;;;;5073000;28;20979;-76
2022/11/02 04:30:23;;;;;;;0.60;0.60;;;12.40;80.90;;;;;;5073260;28;20437;-76
2022/11/02 04:35:36;;;;;;;0.60;0.60;;;12.00;81.90;;;;;;5073160;28;20899;-76
2022/11/02 04:40:49;;;;;;;0.60;0.60;;;12.00;82.60;;;;;;5073053;28;20523;-77
2022/11/02 04:43:16;;;;;;;0.67;0.67;;;12.10;82.00;;;;;;5074556;28;20445;-77
2022/11/02 04:45:43;;;;;;;0.70;0.60;;;12.00;81.80;;;;;;5077452;28;20448;-76
2022/11/02 04:48:11;;;;;;;0.60;0.60;;;12.00;81.90;;;;;;5077152;28;20445;-77
2022/11/02 04:50:37;;;;;;;0.80;0.80;;;12.10;82.00;;;;;;5077209;28;20448;-76
2022/11/02 04:53:06;;;;;;;0.80;0.80;;;12.00;81.60;;;;;;5076992;28;20450;-77
2022/11/02 04:55:34;;;;;;;1.20;0.70;;;12.10;82.00;;;;;;5076623;28;20449;-76
2022/11/02 04:58:00;;;;;;;0.60;0.60;;;12.10;81.50;;;;;;5076885;28;20481;-76
2022/11/02 05:00:27;;;;;;;0.60;0.60;;;12.20;81.30;;;;;;5076733;28;20484;-77
2022/11/02 05:02:54;;;;;;;0.60;0.60;;;12.20;81.20;;;;;;5076660;28;20959;-77
2022/11/02 05:05:22;;;;;;;0.80;0.70;;;12.30;81.00;;;;;;5076529;28;20978;-77
2022/11/02 05:07:49;;;;;;;0.73;0.73;;;12.20;80.60;;;;;;5076740;28;20441;-77
2022/11/02 05:10:16;;;;;;;0.60;0.60;;;12.00;81.30;;;;;;5076643;28;20445;-77
2022/11/02 05:12:42;;;;;;;0.60;0.60;;;12.00;81.50;;;;;;5076563;28;20478;-77
2022/11/02 05:15:10;;;;;;;1.10;0.80;;;12.10;81.20;;;;;;5076249;28;20949;-77
2022/11/02 05:17:36;;;;;;;0.90;0.60;;;12.00;81.50;;;;;;5076510;28;20445;-77
2022/11/02 05:20:04;;;;;;;0.90;0.80;;;11.90;81.80;;;;;;5079155;28;20446;-79
2022/11/02 05:22:32;;;;;;;0.60;0.60;;;12.00;85.50;;;;;;5078125;28;20518;-78
2022/11/02 05:24:59;;;;;;;0.70;0.70;;;11.90;82.40;;;;;;5076484;28;20441;-78
2022/11/02 05:27:26;;;;;;;0.70;0.60;;;11.80;82.00;;;;;;5076532;28;20832;-78
2022/11/02 05:29:52;;;;;;;0.80;0.67;;;11.80;82.00;;;;;;5076577;28;20457;-78
2022/11/02 05:32:19;;;;;;;0.80;0.70;;;11.70;82.60;;;;;;5076421;28;20461;-78
2022/11/02 05:34:46;;;;;;;0.70;0.70;;;11.60;82.70;;;;;;5076351;28;20449;-77
2022/11/02 05:37:12;;;;;;;0.80;0.70;;;11.60;82.70;;;;;;5076353;28;20449;-78
2022/11/02 05:39:40;;;;;;;0.60;0.60;;;11.60;82.80;;;;;;5076339;28;20441;-78
2022/11/02 05:42:07;;;;;;;0.67;0.60;;;11.60;82.70;;;;;;5076040;28;20481;-78
2022/11/02 05:44:34;;;;;;;0.70;0.60;;;11.40;83.50;;;;;;5076392;28;20442;-78
2022/11/02 05:47:01;;;;;;;0.70;0.60;;;11.30;83.60;;;;;;5076177;28;20449;-78
2022/11/02 05:49:27;;;;;;;0.80;0.70;;;11.30;84.10;;;;;;5075942;28;20948;-78
2022/11/02 05:51:54;;;;;;;0.60;0.60;;;11.40;83.90;;;;;;5076018;28;20458;-78
2022/11/02 05:54:21;;;;;;;0.60;0.60;;;11.50;83.40;;;;;;5075474;28;20524;-77
2022/11/02 05:56:49;;;;;;;0.60;0.60;;;11.50;83.00;;;;;;5075880;28;20468;-78
2022/11/02 05:59:16;;;;;;;1.03;0.73;;;11.40;83.60;;;;;;5076635;28;20445;-79
2022/11/02 06:01:42;;;;;;;0.80;0.70;;;11.40;83.60;;;;;;5076198;28;21003;-78
2022/11/02 06:04:09;;;;;;;0.80;0.70;;;11.40;83.30;;;;;;5076258;28;20452;-78
2022/11/02 06:06:36;;;;;;;0.80;0.63;;;11.40;83.60;;;;;;5076334;28;20446;-78
2022/11/02 06:09:03;;;;;;;0.70;0.60;;;11.40;86.10;;;;;;5077075;28;20446;-79
2022/11/02 06:11:29;;;;;;;1.13;0.70;;;11.60;84.50;;;;;;5076070;28;20514;-78
2022/11/02 06:13:57;;;;;;;0.70;0.70;;;11.60;84.00;;;;;;5075860;28;20473;-78
2022/11/02 06:16:24;;;;;;;0.80;0.70;;;11.50;84.20;;;;;;5075527;28;20442;-78
2022/11/02 06:18:51;;;;;;;0.70;0.70;;;11.60;83.40;;;;;;5075597;28;20961;-77
2022/11/02 06:21:18;;;;;;;1.00;0.70;;;11.60;83.00;;;;;;5075153;28;20524;-77
2022/11/02 06:23:47;;;;;;;0.70;0.60;;;11.60;82.70;;;;;;5075513;28;20446;-77
2022/11/02 06:26:14;;;;;;;0.80;0.80;;;11.60;82.90;;;;;;5075249;28;20441;-77
2022/11/02 06:28:40;;;;;;;0.70;0.60;;;11.60;82.80;;;;;;5075072;28;20442;-77
2022/11/02 06:31:08;;;;;;;0.90;0.90;;;11.80;82.80;;;;;;5075699;28;20488;-77
2022/11/02 06:33:35;;;;;;;0.80;0.73;;;12.00;82.30;;;;;;5075537;28;20960;-78
2022/11/02 06:36:02;;;;;;;0.77;0.70;;;12.10;81.10;;;;;;5075533;28;20515;-76
2022/11/02 06:38:29;;;;;;;0.80;0.80;;;12.20;80.90;;;;;;5075045;28;20955;-75
2022/11/02 06:40:57;;;;;;;0.80;0.80;;;12.40;81.10;;;;;;5075147;28;20489;-77
2022/11/02 06:43:24;;;;;;;0.70;0.70;;;12.60;80.60;;;;;;5074869;28;20949;-77
2022/11/02 06:45:54;;;;;;;0.73;0.60;;;13.20;80.00;;;;;;5075750;28;20469;-78
2022/11/02 06:48:23;;;;;;;0.80;0.80;;;13.90;77.40;;;;;;5075490;28;20446;-78
2022/11/02 06:50:50;;;;;;;0.63;0.60;;;14.50;75.80;;;;;;5075021;28;20457;-78
2022/11/02 06:53:17;;;;;;;0.70;0.70;;;15.20;74.20;;;;;;5074886;28;20937;-77
2022/11/02 06:55:44;;;;;;;0.70;0.70;;;15.70;72.10;;;;;;5075442;28;20445;-78
2022/11/02 06:58:11;;;;;;;0.77;0.77;;;16.40;69.60;;;;;;5074837;28;20971;-78
2022/11/02 07:00:37;;;;;;;0.70;0.70;;;16.60;69.10;;;;;;5074834;28;20456;-78
2022/11/02 07:03:06;;;;;;;0.70;0.70;;;16.80;68.60;;;;;;5074963;28;20983;-78
2022/11/02 07:05:35;;;;;;;0.87;0.87;;;16.70;67.90;;;;;;5074649;28;20825;-77
2022/11/02 07:08:02;;;;;;;0.70;0.70;;;16.60;68.80;;;;;;5074877;28;20445;-78
2022/11/02 07:10:29;;;;;;;0.70;0.70;;;16.20;69.10;;;;;;5075091;28;20447;-78
2022/11/02 07:12:57;;;;;;;0.70;0.70;;;16.20;69.40;;;;;;5074513;28;20526;-77
2022/11/02 07:15:26;;;;;;;0.73;0.73;;;16.00;70.10;;;;;;5074626;28;20457;-78
2022/11/02 07:17:52;;;;;;;0.70;0.60;;;15.90;70.10;;;;;;5074446;28;20521;-78
2022/11/02 07:20:19;;;;;;;1.00;0.87;;;15.60;70.60;;;;;;5074744;28;20442;-78
2022/11/02 07:22:53;;;;;;;0.70;0.70;;;15.40;72.10;;;;;;5074767;28;20489;-77
2022/11/02 07:25:20;;;;;;;1.73;0.70;;;15.40;72.10;;;;;;5074914;28;20451;-74
2022/11/02 07:27:47;;;;;;;0.80;0.80;;;15.80;72.10;;;;;;5074420;28;20930;-77
2022/11/02 07:30:14;;;;;;;0.60;0.60;;;16.30;70.10;;;;;;5075098;28;20457;-78
2022/11/02 07:32:41;;;;;;;1.47;0.70;;;16.70;69.30;;;;;;5075819;28;20466;-75
2022/11/02 07:35:09;;;;;;;0.70;0.70;;;16.80;68.60;;;;;;5074966;28;20956;-76
2022/11/02 07:37:35;;;;;;;2.27;0.60;;;16.90;68.10;;;;;;5075170;28;20454;-75
2022/11/02 07:40:05;;;;;;;0.83;0.60;;;16.50;69.10;;;;;;5075077;28;20450;-79
2022/11/02 07:42:32;;;;;;;0.60;0.60;;;16.60;69.90;;;;;;5073815;28;20489;-79
2022/11/02 07:44:59;;;;;;;0.80;0.70;;;16.90;68.80;;;;;;5074301;28;20449;-77
2022/11/02 07:47:26;;;;;;;0.80;0.70;;;16.70;69.20;;;;;;5074402;28;20458;-79
2022/11/02 07:49:52;;;;;;;0.73;0.67;;;16.70;69.60;;;;;;5074042;28;20449;-79
2022/11/02 07:52:19;;;;;;;0.70;0.70;;;16.30;70.60;;;;;;5074215;28;20468;-79
2022/11/02 07:54:46;;;;;;;1.07;0.97;;;16.00;71.50;;;;;;5074088;28;20445;-79
2022/11/02 07:57:14;;;;;;;0.93;0.80;;;15.70;72.20;;;;;;5074244;28;20442;-79
2022/11/02 07:59:40;;;;;;;0.70;0.70;;;15.40;73.50;;;;;;5074164;28;20441;-79
2022/11/02 08:02:12;;;;;;;0.70;0.70;;;15.40;73.60;;;;;;5074623;28;20489;-79
2022/11/02 08:04:38;;;;;;;0.70;0.60;;;16.00;73.70;;;;;;5073648;28;20806;-79
2022/11/02 08:07:05;;;;;;;1.03;0.70;;;16.50;71.00;;;;;;5073902;28;20936;-78
2022/11/02 08:09:32;;;;;;;1.00;1.00;;;17.00;69.60;;;;;;5073970;28;20524;-79
2022/11/02 08:11:59;;;;;;;0.70;0.70;;;17.10;69.30;;;;;;5073580;28;20465;-76
2022/11/02 08:14:27;;;;;;;0.70;0.70;;;16.70;69.30;;;;;;5074514;28;20458;-78
2022/11/02 08:16:54;;;;;;;0.80;0.60;;;15.90;72.00;;;;;;5074830;28;20457;-79
2022/11/02 08:19:21;;;;;;;0.90;0.73;;;15.60;73.40;;;;;;5074987;28;20445;-78
2022/11/02 08:21:48;;;;;;;0.70;0.70;;;15.50;73.90;;;;;;5077294;28;20486;-78
2022/11/02 08:24:14;;;;;;;0.63;0.63;;;15.60;74.90;;;;;;5078492;28;20446;-79
2022/11/02 08:26:41;;;;;;;1.07;0.60;;;15.60;74.50;;;;;;5074252;28;20437;-79
2022/11/02 08:29:08;;;;;;;0.80;0.70;;;15.30;75.00;;;;;;5073938;28;20450;-78
2022/11/02 08:31:36;;;;;;;0.60;0.60;;;15.20;75.50;;;;;;5073870;28;20478;-79
2022/11/02 08:34:02;;;;;;;0.63;0.60;;;15.00;76.30;;;;;;5073623;28;20803;-78
2022/11/02 08:36:29;;;;;;;0.80;0.77;;;15.20;76.90;;;;;;5074016;28;20964;-79
2022/11/02 08:38:56;;;;;;;0.60;0.60;;;15.20;75.90;;;;;;5073574;28;20442;-79
2022/11/02 08:41:22;;;;;;;0.73;0.73;;;15.20;76.40;;;;;;5079581;28;20831;-79
2022/11/02 08:43:49;;;;;;;0.60;0.60;;;15.40;76.40;;;;;;5075995;28;20449;-80
2022/11/02 08:46:16;;;;;;;0.70;0.70;;;15.40;76.10;;;;;;5074948;28;20456;-79
2022/11/02 08:48:44;;;;;;;0.80;0.70;;;15.30;76.40;;;;;;5074474;28;20442;-79
2022/11/02 08:51:11;;;;;;;0.70;0.70;;;15.50;76.30;;;;;;5075442;28;20972;-78
2022/11/02 08:53:38;;;;;;;0.70;0.70;;;15.70;75.50;;;;;;5074624;28;20820;-80
2022/11/02 08:56:05;;;;;;;0.60;0.60;;;15.70;75.50;;;;;;5075999;28;20442;-81
2022/11/02 08:58:32;;;;;;;0.73;0.70;;;15.80;74.90;;;;;;5076735;28;20952;-81
2022/11/02 09:00:59;;;;;;;1.10;0.80;;;15.80;75.70;;;;;;5078134;28;20479;-81
2022/11/02 09:03:27;;;;;;;0.80;0.70;;;15.80;74.80;;;;;;5079453;28;20437;-80
2022/11/02 09:05:59;;;;;;;0.77;0.73;;;15.70;74.40;;;;;;5079613;28;20450;-80
2022/11/02 09:08:26;;;;;;;1.10;0.70;;;15.60;74.70;;;;;;5078784;28;20426;-80
2022/11/02 09:10:53;;;;;;;0.70;0.70;;;15.60;74.40;;;;;;5079157;28;20523;-80
2022/11/02 09:13:24;;;;;;;1.10;0.80;;;15.50;75.30;;;;;;5078431;28;20452;-80
2022/11/02 09:15:52;;;;;;;0.80;0.80;;;15.30;73.00;;;;;;5077485;28;20832;-81
2022/11/02 09:18:19;;;;;;;0.63;0.63;;;15.30;73.60;;;;;;5078120;28;20904;-81
2022/11/02 09:20:47;;;;;;;0.83;0.73;;;15.40;73.20;;;;;;5077795;28;20465;-81
2022/11/02 09:23:15;;;;;;;0.73;0.70;;;15.50;73.00;;;;;;5079494;28;20568;-81
2022/11/02 09:25:42;;;;;;;0.83;0.73;;;15.50;73.40;;;;;;5078297;28;20442;-80
2022/11/02 09:28:09;;;;;;;0.83;0.80;;;15.50;73.80;;;;;;5078116;28;20445;-80
2022/11/02 09:30:36;;;;;;;0.70;0.70;;;15.70;73.50;;;;;;5079555;28;20476;-79
2022/11/02 09:33:05;;;;;;;0.80;0.80;;;15.80;73.30;;;;;;5080481;28;20961;-78
2022/11/02 09:35:34;;;;;;;0.70;0.70;;;15.80;73.20;;;;;;5081007;28;20445;-79
2022/11/02 09:38:01;;;;;;;0.77;0.70;;;15.90;71.90;;;;;;5081721;28;20982;-78
2022/11/02 09:40:35;;;;;;;0.70;0.70;;;15.70;72.40;;;;;;5077392;28;20444;-79
2022/11/02 09:43:10;;;;;;;0.70;0.70;;;15.60;71.90;;;;;;5079349;28;20466;-78
2022/11/02 09:45:51;;;;;;;0.80;0.80;;;15.70;71.90;;;;;;5079008;28;20430;-79
2022/11/02 09:48:20;;;;;;;0.70;0.70;;;15.60;71.70;;;;;;5086165;28;20426;-80
2022/11/02 09:50:55;;;;;;;0.80;0.80;;;15.70;71.70;;;;;;5081622;28;20465;-79
2022/11/02 09:53:27;;;;;;;0.60;0.60;;;15.80;71.50;;;;;;5077702;28;20422;-78
2022/11/02 09:55:59;;;;;;;0.80;0.70;;;15.70;71.00;;;;;;5077205;28;20430;-79
2022/11/02 09:58:33;;;;;;;0.60;0.60;;;15.80;71.40;;;;;;5077720;28;20426;-79
2022/11/02 10:01:07;;;;;;;0.80;0.73;;;15.90;71.60;;;;;;5081829;28;21027;-78
2022/11/02 10:03:46;;;;;;;0.60;0.60;;;15.90;71.50;;;;;;5077481;28;20482;-78
2022/11/02 10:06:15;;;;;;;0.67;0.67;;;15.90;71.20;;;;;;5077262;28;20433;-78
2022/11/02 10:08:50;;;;;;;0.80;0.70;;;15.80;70.70;;;;;;5077615;28;20445;-79
2022/11/02 10:11:34;;;;;;;0.80;0.80;;;15.80;71.50;;;;;;5079476;28;20472;-79
2022/11/02 10:14:05;;;;;;;0.60;0.60;;;15.80;71.40;;;;;;5079012;28;20913;-79
2022/11/02 10:16:36;;;;;;;0.70;0.60;;;15.80;70.80;;;;;;5079811;28;20828;-78
2022/11/02 10:19:06;;;;;;;0.90;0.80;;;15.90;70.90;;;;;;5076708;28;20914;-79
2022/11/02 10:21:36;;;;;;;0.63;0.63;;;15.90;69.60;;;;;;5076714;28;20466;-78
2022/11/02 10:24:11;;;;;;;1.10;0.70;;;15.80;70.20;;;;;;5077456;28;20427;-78
2022/11/02 10:26:42;;;;;;;0.73;0.70;;;15.80;69.60;;;;;;5077340;28;20435;-77
2022/11/02 10:29:17;;;;;;;0.63;0.60;;;15.80;70.30;;;;;;5076503;28;20438;-77
2022/11/02 10:31:43;;;;;;;0.70;0.70;;;15.80;70.30;;;;;;5076106;28;20470;-77
2022/11/02 10:34:24;;;;;;;0.80;0.70;;;15.80;70.50;;;;;;5076420;28;20450;-79
2022/11/02 10:37:03;;;;;;;0.80;0.80;;;16.00;69.90;;;;;;5083313;28;20956;-79
2022/11/02 10:39:37;;;;;;;0.80;0.80;;;16.00;69.50;;;;;;5080582;28;20426;-80
2022/11/02 10:42:22;;;;;;;1.03;0.80;;;16.00;69.80;;;;;;5076586;28;20987;-78
2022/11/02 10:45:05;;;;;;;0.70;0.70;;;16.20;69.80;;;;;;5076515;28;20437;-79
2022/11/02 10:47:36;;;;;;;0.60;0.60;;;16.40;69.30;;;;;;5075715;28;20430;-78
2022/11/02 10:50:23;;;;;;;0.80;0.80;;;16.50;69.20;;;;;;5076424;28;20442;-78
2022/11/02 10:52:50;;;;;;;0.70;0.70;;;16.50;69.10;;;;;;5075743;28;20791;-78
2022/11/02 10:55:25;;;;;;;0.70;0.70;;;16.50;68.60;;;;;;5075394;28;20789;-78
2022/11/02 10:57:55;;;;;;;0.70;0.70;;;16.30;68.50;;;;;;5075925;28;20430;-78
2022/11/02 11:00:29;;;;;;;0.70;0.70;;;16.30;69.00;;;;;;5075812;28;20940;-79
2022/11/02 11:03:04;;;;;;;0.90;0.70;;;16.50;69.30;;;;;;5078671;28;20481;-80
2022/11/02 11:05:33;;;;;;;0.80;0.70;;;16.70;69.20;;;;;;5077888;28;20445;-80
2022/11/02 11:08:00;;;;;;;0.70;0.70;;;16.80;67.90;;;;;;5076628;28;20499;-77
2022/11/02 11:10:27;;;;;;;0.60;0.60;;;16.70;67.60;;;;;;5077534;28;20445;-79
2022/11/02 11:12:56;;;;;;;0.70;0.70;;;16.80;67.30;;;;;;5078435;28;20488;-80
2022/11/02 11:15:25;;;;;;;1.20;1.10;;;16.80;67.80;;;;;;5077431;28;20446;-78
2022/11/02 11:17:52;;;;;;;0.70;0.70;;;16.90;67.50;;;;;;5075796;28;20457;-79
2022/11/02 11:20:31;;;;;;;0.87;0.77;;;17.00;67.20;;;;;;5075265;28;20493;-78
2022/11/02 11:23:15;;;;;;;0.70;0.70;;;17.10;67.20;;;;;;5075159;28;20466;-78
2022/11/02 11:25:42;;;;;;;1.10;0.70;;;17.10;67.50;;;;;;5075206;28;20468;-79
2022/11/02 11:28:23;;;;;;;0.70;0.70;;;17.20;67.10;;;;;;5076429;28;20446;-78
2022/11/02 11:31:02;;;;;;;0.80;0.70;;;17.10;67.60;;;;;;5076025;28;20462;-79
2022/11/02 11:33:31;;;;;;;0.70;0.70;;;16.90;66.20;;;;;;5076978;28;20430;-79
2022/11/02 11:35:59;;;;;;;0.60;0.60;;;16.70;67.10;;;;;;5076439;28;20457;-79
2022/11/02 11:38:27;;;;;;;0.70;0.70;;;16.90;67.90;;;;;;5076307;28;20457;-79
2022/11/02 11:40:55;;;;;;;0.80;0.80;;;17.10;67.00;;;;;;5077348;28;20470;-77
2022/11/02 11:43:25;;;;;;;0.80;0.80;;;17.20;66.90;;;;;;5078294;28;20474;-79
2022/11/02 11:45:58;;;;;;;0.80;0.70;;;17.20;67.20;;;;;;5083882;28;20445;-79
2022/11/02 11:48:34;;;;;;;0.60;0.60;;;17.30;65.90;;;;;;5077873;28;20819;-78
2022/11/02 11:51:02;;;;;;;0.70;0.60;;;17.60;66.60;;;;;;5076998;28;20465;-79
2022/11/02 11:53:29;;;;;;;1.27;0.70;;;17.80;65.20;;;;;;5078947;28;20447;-79
2022/11/02 11:55:58;;;;;;;0.80;0.80;;;17.90;64.70;;;;;;5077862;28;20446;-79
2022/11/02 11:58:27;;;;;;;0.80;0.60;;;18.20;63.00;;;;;;5080490;28;20461;-84
2022/11/02 12:01:08;;;;;;;0.70;0.70;;;18.50;64.00;;;;;;5080374;28;20461;-79
2022/11/02 12:03:50;;;;;;;0.93;0.80;;;19.00;62.80;;;;;;5081078;28;20573;-76
2022/11/02 12:06:25;;;;;;;0.80;0.70;;;19.70;60.40;;;;;;5082937;28;20430;-79
2022/11/02 12:09:00;;;;;;;0.70;0.70;;;20.50;58.90;;;;;;5083337;28;20776;-79
2022/11/02 12:11:38;;;;;;;0.70;0.70;;;20.80;57.10;;;;;;5077409;28;20470;-80
2022/11/02 12:14:25;;;;;;;0.60;0.50;;;21.40;56.70;;;;;;5077042;28;20422;-77
2022/11/02 12:17:18;;;;;;;0.70;0.70;;;21.90;53.70;;;;;;5078010;28;20929;-80
2022/11/02 12:20:00;;;;;;;0.70;0.70;;;22.10;52.70;;;;;;5078816;28;20445;-81
2022/11/02 12:22:38;;;;;;;1.33;0.80;;;22.30;52.70;;;;;;5077833;28;20507;-80
2022/11/02 12:25:34;;;;;;;0.70;0.70;;;22.10;51.80;;;;;;5078123;28;20426;-80
2022/11/02 12:28:13;;;;;;;0.70;0.60;;;22.30;52.40;;;;;;5078444;28;20426;-80
2022/11/02 12:30:51;;;;;;;0.80;0.70;;;21.60;51.90;;;;;;5076557;28;20488;-79
2022/11/02 12:33:32;;;;;;;0.67;0.67;;;21.00;53.80;;;;;;5073333;28;20418;-76
2022/11/02 12:36:12;;;;;;;0.70;0.70;;;20.70;55.10;;;;;;5073204;28;20425;-76
2022/11/02 12:39:02;;;;;;;1.40;0.73;;;20.50;56.60;;;;;;5074105;28;20842;-75
2022/11/02 12:41:43;;;;;;;0.83;0.83;;;20.90;55.30;;;;;;5075887;28;20474;-76
2022/11/02 12:44:25;;;;;;;0.60;0.60;;;21.00;53.80;;;;;;5075268;28;20472;-75
2022/11/02 12:46:57;;;;;;;0.73;0.73;;;20.80;54.10;;;;;;5077382;28;20542;-79
2022/11/02 12:49:35;;;;;;;0.70;0.70;;;20.30;55.30;;;;;;5081382;28;20921;-80
2022/11/02 12:52:13;;;;;;;0.80;0.80;;;20.20;55.60;;;;;;5078950;28;20470;-77
2022/11/02 12:54:44;;;;;;;0.70;0.70;;;20.00;56.20;;;;;;5079512;28;20430;-80
2022/11/02 12:57:14;;;;;;;0.70;0.70;;;19.90;56.60;;;;;;5079902;28;20449;-79
2022/11/02 12:59:43;;;;;;;0.90;0.73;;;19.80;56.60;;;;;;5079921;28;20449;-79
2022/11/02 13:02:16;;;;;;;0.70;0.60;;;19.80;56.80;;;;;;5078521;28;20485;-78
2022/11/02 13:04:49;;;;;;;0.80;0.80;;;20.00;57.10;;;;;;5080822;28;20792;-79
2022/11/02 13:07:20;;;;;;;0.60;0.60;;;20.90;55.00;;;;;;5084757;28;20441;-80
2022/11/02 13:09:53;;;;;;;0.70;0.70;;;21.10;53.00;;;;;;5085669;28;20449;-80
2022/11/02 13:12:23;;;;;;;0.70;0.70;;;21.10;54.00;;;;;;5082865;28;20556;-79
2022/11/02 13:14:52;;;;;;;0.60;0.60;;;20.60;52.80;;;;;;5083054;28;20452;-79
2022/11/02 13:17:23;;;;;;;0.70;0.67;;;20.40;53.30;;;;;;5082745;28;20446;-80
2022/11/02 13:19:54;;;;;;;1.13;0.83;;;20.80;52.50;;;;;;5078425;28;20887;-78
2022/11/02 13:22:25;;;;;;;1.77;0.80;;;21.10;51.70;;;;;;5079733;28;20462;-80
2022/11/02 13:24:56;;;;;;;0.80;0.80;;;21.60;52.00;;;;;;5081483;28;20441;-79
2022/11/02 13:27:30;;;;;;;0.97;0.97;;;22.90;49.80;;;;;;5078767;28;20937;-79
2022/11/02 13:30:01;;;;;;;0.70;0.70;;;25.20;45.50;;;;;;5077475;28;20434;-79
2022/11/02 13:32:35;;;;;;;1.13;0.70;;;25.80;44.00;;;;;;5077492;28;20465;-79
2022/11/02 13:35:07;;;;;;;0.60;0.60;;;26.20;43.50;;;;;;5076891;28;20438;-78
2022/11/02 13:37:37;;;;;;;0.60;0.60;;;27.00;42.40;;;;;;5077624;28;20438;-78
2022/11/02 13:40:12;;;;;;;0.60;0.60;;;27.40;41.50;;;;;;5077832;28;20913;-81
2022/11/02 13:43:05;;;;;;;0.50;0.50;;;28.50;40.30;;;;;;5078516;28;20485;-79
2022/11/02 13:45:53;;;;;;;0.60;0.60;;;30.40;37.00;;;;;;5079916;28;20433;-80
2022/11/02 13:48:48;;;;;;;0.70;0.60;;;31.20;36.40;;;;;;5080078;28;20425;-79
2022/11/02 13:51:23;;;;;;;0.60;0.60;;;31.10;35.50;;;;;;5080448;28;20514;-79
2022/11/02 13:53:55;;;;;;;0.60;0.60;;;30.30;36.10;;;;;;5079842;28;20421;-80
2022/11/02 13:56:25;;;;;;;0.60;0.60;;;30.90;35.70;;;;;;5078931;28;20435;-79
2022/11/02 13:58:57;;;;;;;0.90;0.70;;;31.30;34.60;;;;;;5081476;28;20452;-81
2022/11/02 14:01:25;;;;;;;0.70;0.70;;;30.60;35.60;;;;;;5081579;28;20477;-80
2022/11/02 14:03:57;;;;;;;0.90;0.70;;;29.80;36.70;;;;;;5079137;28;20481;-78
2022/11/02 14:06:24;;;;;;;0.60;0.60;;;28.80;37.70;;;;;;5078719;28;20433;-82
2022/11/02 14:08:54;;;;;;;0.60;0.60;;;28.20;38.70;;;;;;5078654;28;20964;-82
2022/11/02 14:11:44;;;;;;;0.70;0.70;;;27.90;38.80;;;;;;5082790;28;20469;-81
2022/11/02 14:14:29;;;;;;;0.70;0.70;;;28.30;38.50;;;;;;5080459;28;20604;-79
2022/11/02 14:17:14;;;;;;;0.60;0.60;;;29.20;37.30;;;;;;5078253;28;20438;-80
2022/11/02 14:20:03;;;;;;;0.70;0.70;;;30.10;36.00;;;;;;5076057;28;20453;-79
2022/11/02 14:22:30;;;;;;;0.60;0.60;;;29.80;36.60;;;;;;5079365;28;20472;-81
2022/11/02 14:25:17;;;;;;;0.60;0.60;;;29.00;36.70;;;;;;5079570;28;20537;-81
2022/11/02 14:27:44;;;;;;;0.70;0.67;;;28.20;37.90;;;;;;5075484;28;20814;-78
2022/11/02 14:30:42;;;;;;;0.87;0.80;;;27.70;39.00;;;;;;5078221;28;20811;-81
2022/11/02 14:33:32;;;;;;;0.80;0.80;;;27.20;40.30;;;;;;5079133;28;20495;-80
2022/11/02 14:36:05;;;;;;;0.70;0.70;;;26.60;40.90;;;;;;5078557;28;20441;-78
2022/11/02 14:38:56;;;;;;;0.70;0.70;;;26.10;41.60;;;;;;5078647;28;20439;-81
2022/11/02 14:41:36;;;;;;;0.60;0.60;;;25.50;42.10;;;;;;5076638;28;20468;-80
2022/11/02 14:44:33;;;;;;;0.70;0.70;;;24.80;42.90;;;;;;5077680;28;20468;-80
2022/11/02 14:47:06;;;;;;;0.60;0.60;;;24.00;43.90;;;;;;5078448;28;20430;-79
2022/11/02 14:49:36;;;;;;;0.60;0.57;;;23.30;45.10;;;;;;5076983;28;20438;-79
2022/11/02 14:52:08;;;;;;;0.60;0.60;;;22.70;46.20;;;;;;5075414;28;21003;-80
2022/11/02 14:54:45;;;;;;;0.60;0.60;;;22.20;47.20;;;;;;5075281;28;20438;-79
2022/11/02 14:57:23;;;;;;;0.80;0.73;;;21.80;48.10;;;;;;5075354;28;20441;-79
2022/11/02 14:59:53;;;;;;;0.73;0.73;;;21.40;49.30;;;;;;5075545;28;20452;-79
2022/11/02 15:02:23;;;;;;;0.70;0.70;;;21.00;50.20;;;;;;5075460;28;20480;-79
2022/11/02 15:04:53;;;;;;;0.70;0.70;;;20.70;50.60;;;;;;5077739;28;20466;-79
2022/11/02 15:07:25;;;;;;;0.70;0.70;;;20.40;51.30;;;;;;5077177;28;20453;-79
2022/11/02 15:09:55;;;;;;;0.80;0.60;;;20.10;52.40;;;;;;5078089;28;20433;-80
2022/11/02 15:12:39;;;;;;;0.77;0.77;;;19.90;52.70;;;;;;5076689;28;20493;-78
2022/11/02 15:15:30;;;;;;;0.60;0.57;;;19.50;53.10;;;;;;5075592;28;20472;-79
2022/11/02 15:18:16;;;;;;;0.90;0.60;;;19.30;53.70;;;;;;5076483;28;20433;-79
2022/11/02 15:20:43;;;;;;;0.80;0.70;;;19.20;54.00;;;;;;5072274;28;21054;-79
2022/11/02 15:23:22;;;;;;;0.53;0.50;;;18.90;55.00;;;;;;5075663;28;20603;-79
2022/11/02 15:25:52;;;;;;;0.67;0.67;;;18.80;55.60;;;;;;5074677;28;20434;-79
2022/11/02 15:28:23;;;;;;;0.80;0.70;;;18.60;55.90;;;;;;5073691;28;20442;-79
2022/11/02 15:30:52;;;;;;;0.70;0.60;;;18.50;56.70;;;;;;5075288;28;20480;-79
2022/11/02 15:33:33;;;;;;;0.73;0.70;;;18.30;58.20;;;;;;5074951;28;20449;-78
2022/11/02 15:36:02;;;;;;;1.13;0.90;;;18.00;58.00;;;;;;5074816;28;20445;-79
2022/11/02 15:38:30;;;;;;;1.33;0.90;;;17.80;59.80;;;;;;5076327;28;20449;-79
2022/11/02 15:41:05;;;;;;;0.70;0.70;;;17.70;60.40;;;;;;5075717;28;20466;-79
2022/11/02 15:43:55;;;;;;;0.70;0.70;;;17.50;60.80;;;;;;5077380;28;20476;-79
2022/11/02 15:46:35;;;;;;;0.90;0.90;;;17.40;61.20;;;;;;5077217;28;20471;-79
2022/11/02 15:49:14;;;;;;;0.77;0.70;;;17.30;62.30;;;;;;5075534;28;20445;-78
2022/11/02 15:51:50;;;;;;;0.70;0.70;;;17.00;63.00;;;;;;5074972;28;20465;-78
2022/11/02 15:54:31;;;;;;;1.03;0.90;;;16.90;63.30;;;;;;5079106;28;20417;-78
2022/11/02 15:57:09;;;;;;;1.10;1.00;;;16.70;63.60;;;;;;5076504;28;20429;-79
2022/11/02 16:00:16;;;;;;;1.17;1.00;;;16.60;64.40;;;;;;5077321;28;20430;-80
2022/11/02 16:02:46;;;;;;;1.53;1.00;;;16.40;64.80;;;;;;5076848;28;20493;-79
2022/11/02 16:05:19;;;;;;;1.10;1.00;;;16.30;64.70;;;;;;5076499;28;20470;-80
2022/11/02 16:07:47;;;;;;;2.60;1.40;;;16.20;65.10;;;;;;5074655;28;20426;-79
2022/11/02 16:10:24;;;;;;;1.30;0.87;;;16.10;65.50;;;;;;5074382;28;20446;-79
2022/11/02 16:12:58;;;;;;;0.97;0.87;;;16.00;65.90;;;;;;5074855;28;20462;-79
2022/11/02 16:15:26;;;;;;;2.80;1.40;;;15.90;66.10;;;;;;5081152;28;20811;-79
2022/11/02 16:17:53;;;;;;;1.70;1.10;;;15.80;66.40;;;;;;5078967;28;20442;-79
2022/11/02 16:20:22;;;;;;;1.17;0.93;;;15.70;66.40;;;;;;5075539;28;21018;-78
2022/11/02 16:22:51;;;;;;;1.00;0.90;;;15.60;66.70;;;;;;5076434;28;20449;-78
2022/11/02 16:25:25;;;;;;;0.80;0.80;;;15.60;67.20;;;;;;5077975;28;21004;-79
2022/11/02 16:27:52;;;;;;;1.13;1.03;;;15.50;67.80;;;;;;5074746;28;20841;-80
2022/11/02 16:30:21;;;;;;;1.70;1.60;;;15.40;67.90;;;;;;5075147;28;20450;-79
2022/11/02 16:32:53;;;;;;;1.57;1.47;;;15.40;68.20;;;;;;5076693;28;20469;-79
2022/11/02 16:35:20;;;;;;;1.93;1.83;;;15.30;68.20;;;;;;5075681;28;20421;-79
2022/11/02 16:37:49;;;;;;;1.60;1.50;;;15.20;68.30;;;;;;5075314;28;20457;-80
2022/11/02 16:40:18;;;;;;;1.00;1.00;;;15.10;68.70;;;;;;5077149;28;20453;-79
2022/11/02 16:42:47;;;;;;;1.10;1.00;;;15.10;69.20;;;;;;5084636;28;20476;-81
2022/11/02 16:45:33;;;;;;;0.90;0.90;;;15.00;69.50;;;;;;5083508;28;20474;-81
2022/11/02 16:48:00;;;;;;;1.10;1.10;;;15.00;69.70;;;;;;5081417;28;20457;-78
2022/11/02 16:50:28;;;;;;;0.80;0.80;;;14.80;69.90;;;;;;5079465;28;20449;-80
2022/11/02 16:52:56;;;;;;;1.33;0.90;;;14.70;70.10;;;;;;5077716;28;20437;-79
2022/11/02 16:55:36;;;;;;;1.00;1.00;;;14.60;70.40;;;;;;5078378;28;20441;-79
2022/11/02 16:58:05;;;;;;;1.00;1.00;;;14.60;70.90;;;;;;5078929;28;20436;-78
2022/11/02 17:00:33;;;;;;;1.37;1.10;;;14.50;71.10;;;;;;5078044;28;20451;-80
2022/11/02 17:03:08;;;;;;;1.20;1.00;;;14.50;71.20;;;;;;5077951;28;20833;-77
2022/11/02 17:05:35;;;;;;;1.00;1.00;;;14.50;71.20;;;;;;5078721;28;20487;-80
2022/11/02 17:08:04;;;;;;;2.40;1.17;;;14.50;71.30;;;;;;5078339;28;20464;-79
2022/11/02 17:10:35;;;;;;;1.23;0.97;;;14.50;71.50;;;;;;5077572;28;20450;-79
2022/11/02 17:13:02;;;;;;;1.37;1.13;;;14.50;71.60;;;;;;5078886;28;20913;-77
2022/11/02 17:15:32;;;;;;;1.10;1.00;;;14.40;71.60;;;;;;5077705;28;20442;-79
2022/11/02 17:18:23;;;;;;;1.40;1.30;;;14.40;71.60;;;;;;5080635;28;20442;-80
2022/11/02 17:21:27;;;;;;;1.17;1.10;;;14.40;71.60;;;;;;5080113;28;20468;-79
2022/11/02 17:23:55;;;;;;;1.90;0.97;;;14.30;71.80;;;;;;5078999;28;20469;-79
2022/11/02 17:26:34;;;;;;;1.30;1.20;;;14.30;72.00;;;;;;5078518;28;20450;-80